Terminal Aerodrome Forecast
Issued by NWS

Home | Current Version | Previous Version | Text Only | Print | Product List | Glossary On
Versions: 1 2 3 4 5 6 7 8 9 10 11 12 13 14
000
FTUS46 KMTR 312100 AAB
TAFMRY
TAF AMD
KMRY 312142Z 3122/0118 VRB04KT 3SM RA BR OVC040
     FM010400 26008KT P6SM VCSH BKN030 OVC050
     FM011200 VRB04KT P6SM BKN050=

USA.gov is the U.S. government's official web portal to all federal, state and local government web resources and services.